Time;durP1;ratioP1;P1;durP2;ratioP2;P2;SDS_P1;SDS_P2;PMS_P1;PMS_P2;Temp;Humidity;BMP_temperature;BMP_pressure;BME280_temperature;BME280_humidity;BME280_pressure;Samples;Min_cycle;Max_cycle;Signal;HPM_P1;HPM_P2
2023/07/12 00:01:42;;;;;;;1.65;1.10;;;26.60;56.30;;;;;;4940892;29;20400;-76
2023/07/12 00:04:08;;;;;;;1.38;0.93;;;26.60;56.40;;;;;;4959091;28;20398;-77
2023/07/12 00:06:36;;;;;;;0.73;0.70;;;26.50;56.30;;;;;;4958234;28;20031;-76
2023/07/12 00:09:04;;;;;;;1.25;0.90;;;26.50;56.40;;;;;;4957963;28;20039;-77
2023/07/12 00:11:29;;;;;;;0.70;0.70;;;26.40;56.50;;;;;;4956870;28;20114;-77
2023/07/12 00:13:55;;;;;;;1.27;0.90;;;26.40;56.60;;;;;;4957915;28;20071;-76
2023/07/12 00:16:27;;;;;;;0.73;0.73;;;26.40;56.50;;;;;;4940086;29;20027;-77
2023/07/12 00:18:55;;;;;;;1.48;0.90;;;26.40;56.70;;;;;;4956463;29;20038;-77
2023/07/12 00:21:24;;;;;;;1.77;1.10;;;26.30;56.70;;;;;;4956862;28;20031;-77
2023/07/12 00:23:58;;;;;;;1.08;0.63;;;26.30;56.80;;;;;;4957604;29;20035;-77
2023/07/12 00:26:30;;;;;;;1.05;0.82;;;26.20;56.80;;;;;;4956831;28;20024;-77
2023/07/12 00:28:59;;;;;;;1.48;0.90;;;26.20;56.80;;;;;;4956538;29;20067;-77
2023/07/12 00:31:25;;;;;;;0.90;0.90;;;26.10;56.80;;;;;;4956453;29;20085;-77
2023/07/12 00:33:52;;;;;;;1.67;0.88;;;26.10;56.90;;;;;;4940377;29;20066;-77
2023/07/12 00:36:26;;;;;;;1.50;1.00;;;26.10;57.00;;;;;;4956332;29;20051;-77
2023/07/12 00:38:52;;;;;;;1.05;0.98;;;26.00;57.00;;;;;;4956888;29;20045;-77
2023/07/12 00:41:56;;;;;;;1.90;0.98;;;26.00;57.00;;;;;;4940368;29;20029;-77
2023/07/12 00:44:25;;;;;;;2.28;1.02;;;26.00;57.20;;;;;;4908758;29;20555;-77
2023/07/12 00:46:57;;;;;;;0.90;0.80;;;25.90;57.10;;;;;;4957039;28;20085;-76
2023/07/12 00:49:24;;;;;;;1.65;1.10;;;25.90;57.20;;;;;;4956025;29;20053;-77
2023/07/12 00:51:53;;;;;;;2.08;1.10;;;25.80;57.20;;;;;;4940408;29;20065;-77
2023/07/12 00:54:26;;;;;;;1.77;1.10;;;25.70;57.20;;;;;;4955981;29;20035;-76
2023/07/12 00:56:52;;;;;;;2.37;1.07;;;25.70;57.30;;;;;;4940404;29;20031;-77
2023/07/12 00:59:22;;;;;;;1.35;1.02;;;25.70;57.20;;;;;;4955858;28;20042;-77
2023/07/12 01:01:59;;;;;;;0.90;0.73;;;25.60;57.30;;;;;;4939824;29;20032;-76
2023/07/12 01:04:32;;;;;;;1.55;1.00;;;25.60;57.30;;;;;;4955998;28;20031;-76
2023/07/12 01:06:58;;;;;;;1.90;1.03;;;25.60;57.30;;;;;;4957232;28;20035;-77
2023/07/12 01:09:26;;;;;;;0.80;0.80;;;25.50;57.20;;;;;;4939953;29;20027;-77
2023/07/12 01:11:52;;;;;;;1.95;1.10;;;25.50;57.30;;;;;;4955950;29;20495;-77
2023/07/12 01:14:18;;;;;;;0.93;0.80;;;25.40;57.20;;;;;;4939839;29;20421;-76
2023/07/12 01:16:56;;;;;;;1.33;0.90;;;25.40;57.30;;;;;;4955719;29;20086;-77
2023/07/12 01:19:22;;;;;;;1.67;0.90;;;25.40;57.40;;;;;;4957286;28;20456;-77
2023/07/12 01:21:51;;;;;;;1.50;0.88;;;25.30;57.30;;;;;;4956805;28;20039;-77
2023/07/12 01:24:18;;;;;;;1.38;0.98;;;25.30;57.40;;;;;;4956072;29;20027;-77
2023/07/12 01:26:50;;;;;;;1.40;1.00;;;25.30;57.40;;;;;;4957048;28;20114;-76
2023/07/12 01:29:16;;;;;;;2.15;1.10;;;25.20;57.50;;;;;;4955607;28;20480;-76
2023/07/12 01:31:43;;;;;;;1.27;0.82;;;25.10;57.40;;;;;;4939413;28;20034;-76
2023/07/12 01:34:10;;;;;;;1.10;0.90;;;25.10;57.40;;;;;;4955234;28;20051;-76
2023/07/12 01:36:37;;;;;;;1.85;1.00;;;25.10;57.40;;;;;;4955378;29;20035;-77
2023/07/12 01:39:04;;;;;;;1.38;1.05;;;25.10;57.50;;;;;;4939975;29;20031;-77
2023/07/12 01:41:30;;;;;;;1.55;1.15;;;25.00;57.40;;;;;;4955669;29;20035;-76
2023/07/12 01:43:57;;;;;;;1.08;0.80;;;25.00;57.50;;;;;;4939137;29;20035;-76
2023/07/12 01:46:23;;;;;;;1.17;0.93;;;24.90;57.40;;;;;;4938834;29;20531;-76
2023/07/12 01:48:54;;;;;;;1.50;1.05;;;24.80;57.40;;;;;;5079428;27;1279534;-75
2023/07/12 01:51:21;;;;;;;1.20;0.93;;;24.80;57.40;;;;;;5093343;28;20032;-76
2023/07/12 01:53:49;;;;;;;2.08;1.08;;;24.80;57.50;;;;;;5066272;28;20395;-75
2023/07/12 01:56:16;;;;;;;1.65;1.10;;;24.70;57.40;;;;;;5066615;28;20035;-76
2023/07/12 01:58:42;;;;;;;1.98;1.00;;;24.70;57.40;;;;;;5070797;28;20032;-77
2023/07/12 02:01:08;;;;;;;1.95;1.10;;;24.70;57.50;;;;;;5063735;28;20124;-76
2023/07/12 02:03:34;;;;;;;1.15;1.00;;;24.70;57.60;;;;;;5086165;28;20035;-75
2023/07/12 02:06:01;;;;;;;1.30;1.00;;;24.60;57.50;;;;;;5081847;28;20024;-75
2023/07/12 02:08:26;;;;;;;1.70;1.20;;;24.60;57.50;;;;;;5081679;28;20497;-76
2023/07/12 02:10:52;;;;;;;1.25;0.80;;;24.50;57.50;;;;;;5097026;28;20028;-75
2023/07/12 02:13:19;;;;;;;1.58;1.17;;;24.50;57.60;;;;;;5059905;28;20504;-76
2023/07/12 02:15:45;;;;;;;1.92;1.25;;;24.50;57.70;;;;;;5077265;28;20199;-76
2023/07/12 02:18:12;;;;;;;1.40;1.00;;;24.40;57.70;;;;;;5061233;28;20119;-76
2023/07/12 02:20:39;;;;;;;1.83;1.20;;;24.40;57.70;;;;;;5098142;28;20028;-74
2023/07/12 02:23:05;;;;;;;2.55;1.13;;;24.40;57.80;;;;;;5065871;28;20028;-75
2023/07/12 02:25:32;;;;;;;1.92;1.10;;;24.40;57.80;;;;;;5082697;28;20047;-78
2023/07/12 02:27:57;;;;;;;1.75;1.00;;;24.30;57.80;;;;;;5072082;28;20052;-78
2023/07/12 02:30:26;;;;;;;1.83;1.17;;;24.30;57.90;;;;;;5055339;28;20032;-78
2023/07/12 02:32:54;;;;;;;1.38;1.10;;;24.30;58.00;;;;;;5072471;28;20020;-78
2023/07/12 02:35:22;;;;;;;1.90;1.10;;;24.20;57.90;;;;;;5055675;28;20036;-78
2023/07/12 02:37:48;;;;;;;1.38;0.90;;;24.20;57.90;;;;;;5072093;28;20165;-78
2023/07/12 02:40:15;;;;;;;1.85;1.00;;;24.20;58.00;;;;;;5072657;28;20036;-78
2023/07/12 02:42:41;;;;;;;1.27;1.00;;;24.10;58.00;;;;;;5071266;28;20063;-78
2023/07/12 02:45:08;;;;;;;1.67;1.10;;;24.10;58.10;;;;;;5071546;28;20028;-78
2023/07/12 02:47:34;;;;;;;2.20;0.88;;;24.00;58.10;;;;;;5071236;28;20052;-78
2023/07/12 02:50:00;;;;;;;1.80;1.20;;;24.00;58.10;;;;;;5071801;28;20028;-78
2023/07/12 02:52:26;;;;;;;1.55;1.00;;;24.00;58.20;;;;;;5089252;28;20028;-78
2023/07/12 02:54:51;;;;;;;2.10;1.10;;;24.00;58.20;;;;;;5071436;28;20085;-78
2023/07/12 02:57:17;;;;;;;1.55;0.93;;;24.00;58.30;;;;;;5055399;28;20064;-78
2023/07/12 02:59:44;;;;;;;1.40;1.00;;;23.90;58.30;;;;;;5061195;28;20032;-78
2023/07/12 03:02:12;;;;;;;2.20;1.02;;;23.90;58.30;;;;;;5058945;28;20032;-78
2023/07/12 03:04:38;;;;;;;1.63;0.80;;;23.90;58.30;;;;;;5076376;28;20028;-78
2023/07/12 03:07:04;;;;;;;2.30;0.98;;;23.80;58.30;;;;;;5041394;28;20036;-78
2023/07/12 03:09:30;;;;;;;1.33;0.98;;;23.80;58.40;;;;;;5075721;28;20059;-78
2023/07/12 03:11:56;;;;;;;2.20;1.10;;;23.80;58.40;;;;;;5058305;28;20067;-78
2023/07/12 03:14:22;;;;;;;1.58;1.00;;;23.70;58.40;;;;;;5076239;28;20464;-78
2023/07/12 03:16:48;;;;;;;1.70;0.98;;;23.70;58.50;;;;;;5057653;28;20117;-78
2023/07/12 03:19:15;;;;;;;1.77;1.10;;;23.70;58.60;;;;;;5041047;28;20053;-78
2023/07/12 03:21:42;;;;;;;1.65;1.10;;;23.70;58.60;;;;;;5057850;28;20025;-78
2023/07/12 03:24:09;;;;;;;1.73;1.08;;;23.60;58.60;;;;;;5057929;28;20067;-78
2023/07/12 03:26:36;;;;;;;2.35;0.93;;;23.60;58.70;;;;;;5058031;28;20075;-78
2023/07/12 03:29:03;;;;;;;1.48;0.90;;;23.60;58.70;;;;;;5057451;28;20025;-78
2023/07/12 03:31:29;;;;;;;0.90;0.90;;;23.50;58.70;;;;;;5075511;28;20037;-78
2023/07/12 03:33:55;;;;;;;1.15;0.90;;;23.50;58.70;;;;;;5040779;28;20119;-78
2023/07/12 03:36:25;;;;;;;2.58;1.23;;;23.50;58.80;;;;;;5074668;28;20104;-78
2023/07/12 03:38:55;;;;;;;2.42;1.20;;;23.50;58.80;;;;;;5041393;28;20039;-78
2023/07/12 03:41:21;;;;;;;2.08;0.88;;;23.50;58.90;;;;;;5040588;28;20119;-78
2023/07/12 03:43:47;;;;;;;1.17;0.95;;;23.40;58.80;;;;;;5057722;28;20029;-78
2023/07/12 03:46:16;;;;;;;1.25;0.82;;;23.40;58.90;;;;;;5074022;28;20128;-78
2023/07/12 03:48:43;;;;;;;1.98;1.05;;;23.30;58.90;;;;;;5056632;28;20543;-78
2023/07/12 03:51:10;;;;;;;1.52;1.00;;;23.30;58.90;;;;;;5075198;28;20033;-78
2023/07/12 03:53:37;;;;;;;1.88;1.20;;;23.30;59.00;;;;;;5057339;28;20028;-78
2023/07/12 03:56:03;;;;;;;2.65;1.30;;;23.30;59.00;;;;;;5074973;28;20047;-78
2023/07/12 03:58:39;;;;;;;1.95;1.10;;;23.20;59.00;;;;;;5024135;28;20031;-78
2023/07/12 04:01:10;;;;;;;1.45;0.93;;;23.20;59.10;;;;;;5075481;28;20111;-78
2023/07/12 04:03:37;;;;;;;1.10;0.90;;;23.20;59.10;;;;;;5057770;28;20032;-78
2023/07/12 04:06:05;;;;;;;1.55;1.00;;;23.20;59.10;;;;;;5057087;28;20029;-78
2023/07/12 04:08:31;;;;;;;1.60;1.10;;;23.10;59.10;;;;;;5075163;28;20031;-78
2023/07/12 04:10:58;;;;;;;1.08;0.85;;;23.10;59.10;;;;;;5056342;28;20033;-78
2023/07/12 04:13:25;;;;;;;1.20;1.10;;;23.10;59.10;;;;;;5041373;28;20032;-78
2023/07/12 04:15:56;;;;;;;2.38;1.20;;;23.10;59.20;;;;;;5057685;28;20029;-78
2023/07/12 04:18:24;;;;;;;1.80;1.00;;;23.10;59.20;;;;;;5056671;28;20480;-78
2023/07/12 04:20:51;;;;;;;1.25;1.05;;;23.00;59.20;;;;;;5040556;28;20029;-78
2023/07/12 04:23:17;;;;;;;2.55;1.20;;;23.00;59.30;;;;;;5056582;28;20028;-78
2023/07/12 04:25:43;;;;;;;1.77;1.20;;;23.00;59.30;;;;;;5039778;28;20035;-78
2023/07/12 04:28:09;;;;;;;2.10;1.20;;;22.90;59.20;;;;;;5023752;28;20036;-78
2023/07/12 04:30:35;;;;;;;2.63;1.40;;;22.90;59.30;;;;;;5056747;28;20068;-82
2023/07/12 04:33:01;;;;;;;2.13;1.42;;;22.90;59.30;;;;;;5056706;28;20056;-80
2023/07/12 04:35:27;;;;;;;2.17;1.33;;;22.90;59.40;;;;;;5039462;28;20075;-78
2023/07/12 04:37:53;;;;;;;1.55;1.38;;;22.90;59.40;;;;;;5040187;28;20063;-78
2023/07/12 04:40:19;;;;;;;2.83;1.35;;;22.90;59.40;;;;;;5039635;28;20036;-78
2023/07/12 04:42:45;;;;;;;1.92;1.42;;;22.80;59.40;;;;;;5040298;28;20036;-77
2023/07/12 04:45:13;;;;;;;2.13;1.40;;;22.80;59.50;;;;;;5074252;28;20040;-76
2023/07/12 04:47:39;;;;;;;2.80;1.58;;;22.80;59.50;;;;;;5035728;28;20076;-77
2023/07/12 04:50:07;;;;;;;2.08;1.50;;;22.80;59.50;;;;;;5053943;28;20489;-77
2023/07/12 04:52:33;;;;;;;3.08;1.63;;;22.80;59.60;;;;;;5053856;28;20163;-76
2023/07/12 04:55:03;;;;;;;2.35;1.67;;;22.70;59.50;;;;;;5052786;28;20111;-78
2023/07/12 04:57:30;;;;;;;2.95;1.75;;;22.70;59.60;;;;;;5053021;28;20114;-76
2023/07/12 04:59:55;;;;;;;2.38;1.52;;;22.70;59.60;;;;;;5052526;28;20123;-77
2023/07/12 05:02:21;;;;;;;3.03;1.80;;;22.70;59.60;;;;;;5052288;28;20033;-76
2023/07/12 05:04:47;;;;;;;2.60;1.90;;;22.60;59.60;;;;;;5053887;28;20025;-76
2023/07/12 05:07:13;;;;;;;3.40;1.90;;;22.60;59.70;;;;;;5051909;28;20041;-75
2023/07/12 05:09:39;;;;;;;3.00;1.83;;;22.60;59.70;;;;;;5053732;28;20503;-79
2023/07/12 05:12:05;;;;;;;2.65;1.90;;;22.60;59.70;;;;;;5052408;28;20120;-78
2023/07/12 05:14:31;;;;;;;2.88;2.20;;;22.60;59.80;;;;;;5052171;28;20470;-76
2023/07/12 05:16:57;;;;;;;3.22;1.88;;;22.50;59.70;;;;;;5019727;28;20044;-77
2023/07/12 05:19:22;;;;;;;2.83;2.00;;;22.50;59.80;;;;;;5052383;28;20056;-77
2023/07/12 05:21:48;;;;;;;3.25;2.22;;;22.50;59.80;;;;;;5036318;28;20079;-76
2023/07/12 05:24:19;;;;;;;2.33;2.00;;;22.50;59.80;;;;;;5020078;28;20543;-77
2023/07/12 05:26:45;;;;;;;3.00;2.15;;;22.50;59.90;;;;;;5052297;28;20159;-78
2023/07/12 05:29:12;;;;;;;2.88;1.83;;;22.50;59.90;;;;;;5035608;28;20073;-78
2023/07/12 05:31:38;;;;;;;3.63;2.20;;;22.50;59.80;;;;;;5053408;28;20041;-77
2023/07/12 05:34:04;;;;;;;3.08;2.25;;;22.40;59.80;;;;;;5035628;28;20029;-77
2023/07/12 05:36:29;;;;;;;3.78;2.40;;;22.50;59.90;;;;;;5035316;28;20086;-77
2023/07/12 05:38:56;;;;;;;3.85;2.60;;;22.40;59.90;;;;;;5052577;28;20120;-78
2023/07/12 05:41:22;;;;;;;3.10;2.42;;;22.40;59.90;;;;;;5053186;28;20059;-78
2023/07/12 05:43:48;;;;;;;5.68;2.17;;;22.40;60.00;;;;;;5051980;28;20059;-78
2023/07/12 05:46:14;;;;;;;3.85;2.38;;;22.40;60.00;;;;;;5036297;28;20120;-77
2023/07/12 05:48:40;;;;;;;2.92;2.28;;;22.40;60.00;;;;;;5035457;28;20078;-77
2023/07/12 05:51:07;;;;;;;2.95;1.90;;;22.40;60.10;;;;;;5052635;28;20033;-77
2023/07/12 05:53:33;;;;;;;3.28;2.25;;;22.40;60.10;;;;;;5035375;28;20045;-77
2023/07/12 05:56:00;;;;;;;3.28;2.03;;;22.30;60.00;;;;;;5068711;28;20460;-77
2023/07/12 05:58:26;;;;;;;3.03;1.95;;;22.40;60.10;;;;;;5051762;28;20029;-77
2023/07/12 06:01:00;;;;;;;2.72;2.03;;;22.40;60.10;;;;;;5035623;28;20041;-77
2023/07/12 06:03:31;;;;;;;3.60;2.17;;;22.40;60.20;;;;;;5035640;28;20029;-77
2023/07/12 06:05:57;;;;;;;3.42;1.90;;;22.30;60.10;;;;;;5054014;28;20037;-78
2023/07/12 06:08:24;;;;;;;3.55;2.08;;;22.30;60.10;;;;;;5052643;28;20128;-82
2023/07/12 06:10:50;;;;;;;3.40;1.88;;;22.30;60.20;;;;;;5035437;28;20041;-78
2023/07/12 06:13:15;;;;;;;2.28;1.85;;;22.30;60.10;;;;;;5035578;28;20029;-77
2023/07/12 06:15:42;;;;;;;3.22;2.10;;;22.30;60.10;;;;;;5052066;28;20032;-77
2023/07/12 06:18:08;;;;;;;2.97;1.92;;;22.30;60.10;;;;;;5051812;28;20028;-78
2023/07/12 06:20:34;;;;;;;2.50;1.60;;;22.30;60.10;;;;;;5051955;28;20099;-77
2023/07/12 06:22:59;;;;;;;2.63;1.75;;;22.30;60.10;;;;;;5035446;28;20087;-78
2023/07/12 06:25:25;;;;;;;1.95;1.67;;;22.30;60.20;;;;;;5035031;28;20033;-77
2023/07/12 06:27:51;;;;;;;1.70;1.60;;;22.30;60.20;;;;;;5052052;28;20464;-77
2023/07/12 06:30:18;;;;;;;2.67;1.90;;;22.30;60.20;;;;;;5051504;28;20033;-77
2023/07/12 06:32:44;;;;;;;2.05;1.45;;;22.30;60.20;;;;;;5051648;28;20052;-77
2023/07/12 06:35:10;;;;;;;2.72;1.60;;;22.30;60.20;;;;;;5055544;28;20496;-77
2023/07/12 06:37:36;;;;;;;3.13;1.73;;;22.30;60.20;;;;;;5038849;28;20124;-77
2023/07/12 06:40:02;;;;;;;2.40;1.67;;;22.30;60.20;;;;;;5038916;28;20025;-77
2023/07/12 06:42:28;;;;;;;2.50;1.58;;;22.30;60.30;;;;;;5055910;28;20037;-76
2023/07/12 06:44:54;;;;;;;2.80;1.90;;;22.30;60.30;;;;;;5056075;28;20052;-76
2023/07/12 06:47:20;;;;;;;2.05;1.65;;;22.30;60.30;;;;;;5058973;28;20477;-77
2023/07/12 06:49:46;;;;;;;2.15;1.40;;;22.30;60.20;;;;;;5042284;28;20029;-76
2023/07/12 06:52:12;;;;;;;3.53;1.70;;;22.30;60.30;;;;;;5058831;28;20460;-77
2023/07/12 06:54:37;;;;;;;2.60;1.60;;;22.30;60.30;;;;;;5042187;28;20389;-76
2023/07/12 06:57:04;;;;;;;3.03;1.77;;;22.30;60.30;;;;;;5042535;28;20044;-77
2023/07/12 06:59:29;;;;;;;2.95;1.80;;;22.30;60.30;;;;;;5058921;28;20354;-77
2023/07/12 07:01:55;;;;;;;3.75;1.70;;;22.30;60.30;;;;;;5058623;28;20127;-77
2023/07/12 07:04:21;;;;;;;3.05;1.70;;;22.30;60.40;;;;;;5075740;28;20468;-76
2023/07/12 07:06:47;;;;;;;2.25;1.52;;;22.30;60.30;;;;;;5058285;28;20435;-77
2023/07/12 07:09:13;;;;;;;2.13;1.35;;;22.30;60.40;;;;;;5076455;28;20123;-77
2023/07/12 07:11:39;;;;;;;2.28;1.48;;;22.30;60.40;;;;;;5076244;28;20543;-77
2023/07/12 07:14:04;;;;;;;2.55;1.50;;;22.30;60.40;;;;;;5074900;28;20381;-78
2023/07/12 07:16:30;;;;;;;1.58;1.30;;;22.30;60.40;;;;;;5075743;28;20033;-77
2023/07/12 07:18:56;;;;;;;2.97;1.63;;;22.40;60.40;;;;;;5058369;28;20442;-78
2023/07/12 07:21:23;;;;;;;2.10;1.40;;;22.30;60.30;;;;;;5075889;28;20428;-77
2023/07/12 07:23:49;;;;;;;2.55;1.50;;;22.40;60.40;;;;;;5075555;28;20037;-77
2023/07/12 07:26:14;;;;;;;2.80;1.55;;;22.40;60.40;;;;;;5041246;28;20036;-77
2023/07/12 07:28:41;;;;;;;2.40;1.58;;;22.40;60.40;;;;;;5075803;28;20028;-77
2023/07/12 07:31:07;;;;;;;2.40;1.70;;;22.40;61.10;;;;;;5058081;28;20024;-77
2023/07/12 07:33:33;;;;;;;2.42;1.80;;;22.40;60.40;;;;;;5057688;28;20052;-77
2023/07/12 07:35:59;;;;;;;2.70;1.42;;;22.40;60.40;;;;;;5075370;28;20051;-77
2023/07/12 07:38:27;;;;;;;1.92;1.50;;;22.40;60.40;;;;;;5058377;28;20039;-77
2023/07/12 07:40:55;;;;;;;1.73;1.25;;;22.40;60.40;;;;;;5058186;28;20040;-78
2023/07/12 07:43:21;;;;;;;1.95;1.50;;;22.40;60.40;;;;;;5057473;28;20074;-78
2023/07/12 07:45:48;;;;;;;1.98;1.30;;;22.50;60.40;;;;;;5057169;28;20031;-77
2023/07/12 07:48:15;;;;;;;2.97;1.70;;;22.50;60.40;;;;;;5057540;28;20053;-77
2023/07/12 07:50:41;;;;;;;1.88;1.35;;;22.50;60.50;;;;;;5057511;28;20171;-77
2023/07/12 07:53:08;;;;;;;1.80;1.50;;;22.50;60.40;;;;;;5058049;28;20037;-77
2023/07/12 07:55:39;;;;;;;2.55;1.55;;;22.50;60.40;;;;;;5057497;28;20032;-77
2023/07/12 07:58:06;;;;;;;1.63;1.33;;;22.50;60.40;;;;;;5057108;28;20062;-77
2023/07/12 08:00:32;;;;;;;2.83;1.58;;;22.60;60.40;;;;;;5040587;28;20028;-78
2023/07/12 08:02:58;;;;;;;2.58;1.40;;;22.60;60.40;;;;;;5056976;28;20048;-77
2023/07/12 08:05:24;;;;;;;2.13;1.60;;;22.60;60.40;;;;;;5040241;28;20044;-77
2023/07/12 08:07:50;;;;;;;2.00;1.45;;;22.60;60.40;;;;;;5073654;28;20166;-77
2023/07/12 08:10:17;;;;;;;1.92;1.30;;;22.60;60.40;;;;;;5041073;28;20052;-77
2023/07/12 08:12:44;;;;;;;1.85;1.50;;;22.60;60.30;;;;;;5057486;28;20126;-77
2023/07/12 08:15:10;;;;;;;1.85;1.40;;;22.70;60.30;;;;;;5074613;28;20036;-77
2023/07/12 08:17:37;;;;;;;3.50;1.40;;;22.70;60.30;;;;;;5056893;28;20127;-77
2023/07/12 08:20:04;;;;;;;1.88;1.35;;;22.80;60.40;;;;;;5057164;28;20130;-77
2023/07/12 08:22:31;;;;;;;2.10;1.55;;;22.70;60.30;;;;;;5056892;28;20032;-77
2023/07/12 08:24:57;;;;;;;1.88;1.42;;;22.80;60.30;;;;;;5040086;28;20061;-77
2023/07/12 08:27:23;;;;;;;1.88;1.40;;;22.80;60.20;;;;;;5056117;28;20071;-77
2023/07/12 08:29:49;;;;;;;2.35;1.70;;;22.80;60.20;;;;;;5056646;28;20522;-77
2023/07/12 08:32:15;;;;;;;2.40;1.45;;;22.80;60.20;;;;;;5040261;28;20469;-78
2023/07/12 08:34:40;;;;;;;2.05;1.50;;;22.80;60.10;;;;;;5040078;28;20511;-78
2023/07/12 08:37:07;;;;;;;2.42;1.60;;;22.90;60.20;;;;;;5040270;28;20036;-81
2023/07/12 08:39:32;;;;;;;3.38;1.60;;;22.80;60.10;;;;;;5040603;28;20115;-78
2023/07/12 08:41:59;;;;;;;3.47;1.88;;;22.90;60.10;;;;;;5074294;28;20064;-78
2023/07/12 08:44:25;;;;;;;2.83;1.60;;;22.90;60.10;;;;;;5056315;28;20086;-75
2023/07/12 08:46:57;;;;;;;2.38;1.45;;;22.90;60.10;;;;;;5073919;28;20028;-76
2023/07/12 08:49:24;;;;;;;2.30;1.30;;;22.90;60.20;;;;;;5055860;28;20049;-75
2023/07/12 08:51:52;;;;;;;2.97;1.60;;;23.00;60.10;;;;;;5073858;28;20031;-75
2023/07/12 08:54:23;;;;;;;3.03;1.42;;;23.00;60.10;;;;;;5074363;28;20039;-79
2023/07/12 08:56:57;;;;;;;2.72;1.60;;;23.00;60.10;;;;;;5074114;28;20024;-76
2023/07/12 08:59:23;;;;;;;1.60;1.30;;;23.00;60.00;;;;;;5056517;28;20029;-79
2023/07/12 09:01:51;;;;;;;2.47;1.45;;;23.10;60.00;;;;;;5074367;28;20384;-80
2023/07/12 09:04:22;;;;;;;2.85;1.65;;;23.20;60.00;;;;;;5056436;28;20032;-79
2023/07/12 09:06:50;;;;;;;2.45;1.48;;;23.20;59.90;;;;;;5074037;28;20032;-79
2023/07/12 09:09:17;;;;;;;2.35;1.55;;;23.20;59.80;;;;;;5074131;28;20457;-78
2023/07/12 09:11:44;;;;;;;2.17;1.33;;;23.30;59.80;;;;;;5073485;28;20029;-78
2023/07/12 09:14:18;;;;;;;2.17;1.63;;;23.30;59.70;;;;;;5073823;28;20024;-78
2023/07/12 09:17:02;;;;;;;1.70;1.17;;;23.40;59.70;;;;;;5074071;28;20054;-80
2023/07/12 09:19:36;;;;;;;3.30;1.58;;;23.40;59.50;;;;;;5039070;28;20032;-80
2023/07/12 09:22:13;;;;;;;3.17;1.38;;;23.50;59.40;;;;;;5055774;28;20039;-79
2023/07/12 09:24:43;;;;;;;1.83;1.33;;;23.60;59.40;;;;;;5056828;28;20457;-79
2023/07/12 09:27:39;;;;;;;2.47;1.40;;;23.60;59.30;;;;;;5056335;28;20536;-81
2023/07/12 09:30:06;;;;;;;1.60;1.00;;;23.70;59.20;;;;;;5054050;28;20052;-79
2023/07/12 09:32:34;;;;;;;1.85;1.20;;;23.80;59.10;;;;;;5056470;28;20075;-79
2023/07/12 09:35:02;;;;;;;1.33;1.20;;;23.90;59.10;;;;;;5056096;28;20028;-78
2023/07/12 09:37:36;;;;;;;2.28;1.38;;;23.90;59.00;;;;;;5039124;28;20037;-82
2023/07/12 09:40:14;;;;;;;2.40;1.40;;;24.00;59.00;;;;;;5055995;28;20039;-79
2023/07/12 09:42:40;;;;;;;4.20;1.40;;;24.10;58.90;;;;;;5073980;28;20021;-80
2023/07/12 09:45:11;;;;;;;2.05;1.40;;;24.10;58.70;;;;;;5022782;28;20377;-79
2023/07/12 09:47:40;;;;;;;1.90;1.35;;;24.20;58.70;;;;;;5055334;28;20059;-78
2023/07/12 09:50:29;;;;;;;2.28;1.10;;;24.30;58.70;;;;;;5073791;28;20085;-83
2023/07/12 09:53:20;;;;;;;1.77;1.20;;;24.30;58.60;;;;;;5055440;28;20032;-80
2023/07/12 09:55:59;;;;;;;2.45;1.30;;;24.40;58.50;;;;;;5028595;28;20040;-79
2023/07/12 09:58:25;;;;;;;2.00;1.27;;;24.50;58.40;;;;;;5073809;28;20051;-78
2023/07/12 10:01:02;;;;;;;2.10;1.35;;;24.60;58.30;;;;;;5073912;28;20456;-82
2023/07/12 10:03:36;;;;;;;2.00;1.20;;;24.60;58.30;;;;;;5055620;28;20024;-79
2023/07/12 10:06:27;;;;;;;2.83;1.25;;;24.70;58.10;;;;;;5055793;28;20040;-80
2023/07/12 10:09:01;;;;;;;2.45;1.40;;;24.80;58.10;;;;;;5056170;28;20096;-81
2023/07/12 10:11:35;;;;;;;1.92;1.23;;;24.90;57.90;;;;;;5059882;28;20476;-79
2023/07/12 10:14:07;;;;;;;2.30;1.20;;;25.00;57.80;;;;;;5077591;28;20116;-77
2023/07/12 10:16:39;;;;;;;1.60;1.33;;;25.00;57.80;;;;;;5059881;28;20032;-78
2023/07/12 10:19:24;;;;;;;2.28;1.42;;;25.10;57.70;;;;;;5077763;28;20032;-80
2023/07/12 10:21:53;;;;;;;1.23;1.00;;;25.10;57.60;;;;;;5059554;28;20027;-78
2023/07/12 10:24:24;;;;;;;2.90;1.15;;;25.20;57.50;;;;;;5058992;28;20040;-77
2023/07/12 10:26:51;;;;;;;2.25;1.20;;;25.30;57.50;;;;;;5077972;28;20451;-79
2023/07/12 10:29:32;;;;;;;2.72;1.30;;;25.40;57.40;;;;;;5042875;28;20040;-80
2023/07/12 10:32:01;;;;;;;2.65;1.30;;;25.40;57.40;;;;;;5075879;28;20024;-78
2023/07/12 10:34:44;;;;;;;2.40;1.30;;;25.50;57.30;;;;;;5060203;28;20035;-78
2023/07/12 10:37:22;;;;;;;1.48;1.25;;;25.50;57.30;;;;;;5076516;28;20032;-79
2023/07/12 10:39:49;;;;;;;1.50;1.13;;;25.60;57.30;;;;;;5060857;28;20111;-80
2023/07/12 10:42:31;;;;;;;2.60;1.50;;;25.60;57.20;;;;;;5079086;28;20477;-78
2023/07/12 10:45:00;;;;;;;1.95;1.15;;;25.70;57.20;;;;;;5060327;28;20465;-78
2023/07/12 10:47:32;;;;;;;2.40;1.25;;;25.70;57.10;;;;;;5058530;28;20098;-80
2023/07/12 10:50:07;;;;;;;1.75;1.27;;;25.70;57.10;;;;;;5076521;28;20036;-79
2023/07/12 10:52:55;;;;;;;2.60;1.23;;;25.80;57.20;;;;;;5077222;28;20028;-78
2023/07/12 10:56:07;;;;;;;1.90;1.10;;;25.80;57.20;;;;;;5076698;28;20091;-78
2023/07/12 10:58:48;;;;;;;2.35;1.02;;;25.80;57.10;;;;;;4970320;28;20474;-80
2023/07/12 11:01:42;;;;;;;3.17;1.27;;;25.90;57.10;;;;;;5058637;28;20028;-80
2023/07/12 11:04:18;;;;;;;1.42;1.10;;;25.90;57.10;;;;;;5059822;28;20024;-81
2023/07/12 11:07:13;;;;;;;2.72;1.40;;;25.90;57.00;;;;;;5041900;28;20029;-84
2023/07/12 11:12:26;;;;;;;2.45;1.40;;;25.90;57.10;;;;;;5057698;28;20127;-80
2023/07/12 11:15:09;;;;;;;1.83;1.23;;;25.90;57.10;;;;;;5074793;28;20034;-79
2023/07/12 11:18:03;;;;;;;3.40;1.25;;;25.90;57.10;;;;;;5076229;28;20115;-80
2023/07/12 11:20:35;;;;;;;3.47;1.40;;;25.80;57.20;;;;;;5024099;28;20131;-80
2023/07/12 11:23:27;;;;;;;2.22;1.30;;;25.90;57.40;;;;;;5058226;28;20035;-79
2023/07/12 11:26:03;;;;;;;1.58;1.00;;;25.80;57.20;;;;;;5057970;28;20070;-80
2023/07/12 11:28:40;;;;;;;3.03;1.00;;;25.80;57.20;;;;;;5058054;28;20036;-79
2023/07/12 11:31:25;;;;;;;1.92;1.08;;;25.90;57.20;;;;;;5074377;28;20048;-81
2023/07/12 11:33:56;;;;;;;1.73;1.00;;;25.90;57.30;;;;;;5058068;28;20545;-80
2023/07/12 11:36:25;;;;;;;2.17;1.13;;;25.90;57.20;;;;;;5057791;28;20024;-80
2023/07/12 11:38:53;;;;;;;2.08;1.13;;;25.90;57.20;;;;;;5076250;28;20044;-80
2023/07/12 11:41:25;;;;;;;1.40;1.00;;;25.90;57.20;;;;;;5058124;28;20162;-85
2023/07/12 11:44:06;;;;;;;2.75;1.45;;;25.90;57.20;;;;;;5075672;28;20025;-81
2023/07/12 11:46:38;;;;;;;1.15;1.05;;;25.90;57.20;;;;;;5058761;28;20448;-82
2023/07/12 11:49:25;;;;;;;2.05;1.08;;;26.00;57.30;;;;;;5057031;28;20497;-81
2023/07/12 11:52:02;;;;;;;1.30;1.00;;;25.90;57.20;;;;;;5058047;28;20481;-81
2023/07/12 11:54:34;;;;;;;1.88;1.10;;;26.00;57.30;;;;;;5058054;28;20403;-82
2023/07/12 11:57:02;;;;;;;2.28;1.40;;;26.00;57.20;;;;;;5057735;28;20035;-80
2023/07/12 11:59:36;;;;;;;2.45;1.13;;;26.00;57.20;;;;;;5058007;28;20461;-80
2023/07/12 12:02:05;;;;;;;2.08;1.40;;;26.00;57.20;;;;;;5057982;28;20024;-81
2023/07/12 12:04:31;;;;;;;2.10;1.02;;;26.00;57.20;;;;;;5043138;28;20035;-80
2023/07/12 12:07:20;;;;;;;1.52;1.10;;;26.00;57.20;;;;;;5077291;28;20028;-81
2023/07/12 12:09:47;;;;;;;1.38;1.13;;;26.00;57.20;;;;;;5058393;28;20090;-81
2023/07/12 12:12:17;;;;;;;1.33;1.20;;;26.00;57.10;;;;;;5041718;28;20107;-81
2023/07/12 12:14:47;;;;;;;1.83;1.10;;;26.10;57.20;;;;;;5059396;28;20024;-81
2023/07/12 12:17:24;;;;;;;1.70;1.17;;;26.10;57.20;;;;;;5066904;28;20036;-81
2023/07/12 12:20:18;;;;;;;2.90;1.30;;;26.10;57.20;;;;;;5060715;28;20465;-80
2023/07/12 12:22:59;;;;;;;3.03;1.20;;;26.10;57.20;;;;;;5063321;28;20544;-80
2023/07/12 12:25:29;;;;;;;3.30;1.20;;;26.10;57.20;;;;;;5080394;28;20029;-81
2023/07/12 12:27:55;;;;;;;2.35;1.30;;;26.10;57.10;;;;;;5076518;28;20040;-81
2023/07/12 12:30:24;;;;;;;2.45;1.13;;;26.10;57.10;;;;;;5057571;28;20028;-81
2023/07/12 12:33:07;;;;;;;2.15;1.05;;;26.10;57.00;;;;;;5056675;28;20024;-80
2023/07/12 12:35:47;;;;;;;1.35;1.02;;;26.10;57.00;;;;;;5075728;28;20021;-81
2023/07/12 12:38:21;;;;;;;1.67;1.00;;;26.10;56.90;;;;;;5076210;28;20024;-81
2023/07/12 12:41:12;;;;;;;2.95;1.42;;;26.10;56.90;;;;;;5040618;28;20031;-81
2023/07/12 12:44:17;;;;;;;2.05;1.20;;;26.10;56.80;;;;;;5057391;28;20028;-81
2023/07/12 12:46:44;;;;;;;2.30;1.30;;;26.20;56.90;;;;;;5028013;28;20040;-81
2023/07/12 12:49:21;;;;;;;1.65;1.05;;;26.20;56.80;;;;;;5037271;28;20057;-80
2023/07/12 12:51:50;;;;;;;2.72;1.20;;;26.20;56.70;;;;;;5053724;28;20025;-81
2023/07/12 12:54:16;;;;;;;2.35;1.20;;;26.20;56.70;;;;;;5054945;28;20100;-81
2023/07/12 12:56:42;;;;;;;1.30;1.02;;;26.20;56.70;;;;;;5038311;28;20487;-80
2023/07/12 12:59:12;;;;;;;1.20;1.10;;;26.20;56.60;;;;;;5037187;28;20044;-81
2023/07/12 13:01:38;;;;;;;1.83;1.02;;;26.20;56.60;;;;;;5037115;28;20029;-81
2023/07/12 13:04:04;;;;;;;1.23;0.98;;;26.20;56.50;;;;;;5053334;28;20025;-82